Alderney Airport

EGJA · Alderney, Guernsey

使用的METAR站距离机场41 km。
罗盘
风向 的 风向 120° Alderney Airport 8/26
风: 10 kt, 3 beaufort

8 kt

6 kt
改变
0 ft 1.000 2.000 3.000 4.000 5.000
CAVOK
METAR EGJB 180520Z 12010KT CAVOK 17/13 Q1019

METAR Alderney Airport - EGJA/ACI

Alderney Airport是,Guernsey中的中型机场。 该机场位于纬度49,70657和经度-2,21519。 该机场有3条跑道: 8/26, 13/31 和 3/21. 本场的ICAO机场代码为EGJA。 该机场的IATA代码为ACI。 机场在Brest FIR中。

该航空气象观测是针对Guernsey Airport在2024年7月18日 06:20, 当地时间进行的。

机场观察

风向为120°,速度为10 kt。

天气为CAVOK。这意味着在5.000 ft或MSA(最低安全高度)以下(以较高者为准)以下没有云。这也意味着没有观测到积雨云或高耸的积云,可见度为10 km 或者更多或更高。此外,不会有雾,降雨或其他重要天气。

温度和风寒是17 °C。 露点为13 °C,相对湿度为77%。 海平面上的气压为1019 hPa (QNH)。

白天

今天,太阳从05:21升起,在21:08降落。 这适用于Alderney Airport,世界夏令时可能有所不同。 当地时间与世界标准时间之间的时差为+1 小时。 夏令时目前正在进行中。

公司介绍

我们没有关于这个机场的公司信息。

体会

到Vliegles.nl去找飞行课程,跳伞和其他飞行体验。 浏览页面,了解Alderney Airport附近所有可用的活动。 你也可以使用搜索功能来寻找你所在地附近的特定飞行课程、跳伞或其他飞行体验。

跑道

Id 标题 侧风 逆风 侧风 %
8/26 080°-260° 6 kt 8 kt 64 %
13/31 133°-313° 2 kt 10 kt 22 %
3/21 026°-206° 10 kt 100 %

逆风成分最大的方向会被突出显示,并用于横风计算。 这并不一定意味着这个方向在使用。

温度 & 天气

温度 17 °C
露点 13 °C
相对湿度 77%
Kp-index 0 (0-9)

白天

日出
05:24
中午
13:16
日落
21:08 (14:40)

小工具

你想在你的网站上有一个关于Alderney Airport的当前航空天气(METAR)的小部件吗?

显示HTML代码
报告变更